sensor_id;sensor_type;location;lat;lon;timestamp;P1;durP1;ratioP1;P2;durP2;ratioP2
2320;SDS011;15376;48.540;9.268;2023-01-10T00:00:50;2.23;;;2.00;;
2320;SDS011;15376;48.540;9.268;2023-01-10T00:03:16;3.83;;;3.50;;
2320;SDS011;15376;48.540;9.268;2023-01-10T00:05:42;5.70;;;2.50;;
2320;SDS011;15376;48.540;9.268;2023-01-10T00:08:08;3.23;;;1.73;;
2320;SDS011;15376;48.540;9.268;2023-01-10T00:10:37;1.70;;;1.60;;
2320;SDS011;15376;48.540;9.268;2023-01-10T00:13:03;1.80;;;1.70;;
2320;SDS011;15376;48.540;9.268;2023-01-10T00:15:47;1.83;;;1.40;;
2320;SDS011;15376;48.540;9.268;2023-01-10T00:18:13;1.47;;;1.37;;
2320;SDS011;15376;48.540;9.268;2023-01-10T00:20:38;2.63;;;2.40;;
2320;SDS011;15376;48.540;9.268;2023-01-10T00:23:04;2.70;;;2.50;;
2320;SDS011;15376;48.540;9.268;2023-01-10T00:25:29;4.30;;;3.77;;
2320;SDS011;15376;48.540;9.268;2023-01-10T00:27:57;2.53;;;2.10;;
2320;SDS011;15376;48.540;9.268;2023-01-10T00:30:36;2.87;;;1.60;;
2320;SDS011;15376;48.540;9.268;2023-01-10T00:33:03;2.70;;;2.20;;
2320;SDS011;15376;48.540;9.268;2023-01-10T00:35:29;2.40;;;1.60;;
2320;SDS011;15376;48.540;9.268;2023-01-10T00:37:54;1.80;;;1.70;;
2320;SDS011;15376;48.540;9.268;2023-01-10T00:40:25;2.80;;;1.67;;
2320;SDS011;15376;48.540;9.268;2023-01-10T00:42:51;2.83;;;1.93;;
2320;SDS011;15376;48.540;9.268;2023-01-10T00:45:35;1.40;;;1.30;;
2320;SDS011;15376;48.540;9.268;2023-01-10T00:48:00;1.40;;;1.23;;
2320;SDS011;15376;48.540;9.268;2023-01-10T00:50:26;1.30;;;1.20;;
2320;SDS011;15376;48.540;9.268;2023-01-10T00:52:51;3.53;;;1.40;;
2320;SDS011;15376;48.540;9.268;2023-01-10T00:55:16;1.70;;;1.50;;
2320;SDS011;15376;48.540;9.268;2023-01-10T00:57:42;1.87;;;1.40;;
2320;SDS011;15376;48.540;9.268;2023-01-10T01:00:07;2.23;;;1.27;;
2320;SDS011;15376;48.540;9.268;2023-01-10T01:02:34;1.50;;;1.40;;
2320;SDS011;15376;48.540;9.268;2023-01-10T01:05:00;1.40;;;1.30;;
2320;SDS011;15376;48.540;9.268;2023-01-10T01:07:25;2.07;;;1.50;;
2320;SDS011;15376;48.540;9.268;2023-01-10T01:09:50;1.30;;;1.20;;
2320;SDS011;15376;48.540;9.268;2023-01-10T01:12:34;1.30;;;1.20;;
2320;SDS011;15376;48.540;9.268;2023-01-10T01:15:00;1.47;;;1.30;;
2320;SDS011;15376;48.540;9.268;2023-01-10T01:17:25;1.30;;;1.20;;
2320;SDS011;15376;48.540;9.268;2023-01-10T01:19:51;2.40;;;2.30;;
2320;SDS011;15376;48.540;9.268;2023-01-10T01:22:16;2.13;;;1.27;;
2320;SDS011;15376;48.540;9.268;2023-01-10T01:24:41;5.13;;;1.33;;
2320;SDS011;15376;48.540;9.268;2023-01-10T01:27:07;4.77;;;1.20;;
2320;SDS011;15376;48.540;9.268;2023-01-10T01:29:32;1.77;;;1.37;;
2320;SDS011;15376;48.540;9.268;2023-01-10T01:31:57;1.70;;;1.60;;
2320;SDS011;15376;48.540;9.268;2023-01-10T01:34:23;1.30;;;1.17;;
2320;SDS011;15376;48.540;9.268;2023-01-10T01:36:48;1.53;;;1.20;;
2320;SDS011;15376;48.540;9.268;2023-01-10T01:39:15;1.90;;;1.43;;
2320;SDS011;15376;48.540;9.268;2023-01-10T01:41:41;5.50;;;1.57;;
2320;SDS011;15376;48.540;9.268;2023-01-10T01:44:23;1.60;;;1.30;;
2320;SDS011;15376;48.540;9.268;2023-01-10T01:47:16;1.30;;;1.20;;
2320;SDS011;15376;48.540;9.268;2023-01-10T01:49:50;2.07;;;1.40;;
2320;SDS011;15376;48.540;9.268;2023-01-10T01:52:25;1.50;;;1.40;;
2320;SDS011;15376;48.540;9.268;2023-01-10T01:54:56;2.20;;;1.67;;
2320;SDS011;15376;48.540;9.268;2023-01-10T01:57:23;1.67;;;1.50;;
2320;SDS011;15376;48.540;9.268;2023-01-10T01:59:51;1.53;;;1.43;;
2320;SDS011;15376;48.540;9.268;2023-01-10T02:02:23;1.80;;;1.20;;
2320;SDS011;15376;48.540;9.268;2023-01-10T02:04:53;1.60;;;1.33;;
2320;SDS011;15376;48.540;9.268;2023-01-10T02:07:22;1.33;;;1.23;;
2320;SDS011;15376;48.540;9.268;2023-01-10T02:10:06;1.43;;;1.33;;
2320;SDS011;15376;48.540;9.268;2023-01-10T02:12:37;2.00;;;1.80;;
2320;SDS011;15376;48.540;9.268;2023-01-10T02:15:03;1.60;;;1.50;;
2320;SDS011;15376;48.540;9.268;2023-01-10T02:17:29;1.70;;;1.60;;
2320;SDS011;15376;48.540;9.268;2023-01-10T02:19:56;1.77;;;1.60;;
2320;SDS011;15376;48.540;9.268;2023-01-10T02:34:22;2.60;;;2.10;;
2320;SDS011;15376;48.540;9.268;2023-01-10T02:37:07;3.03;;;1.70;;
2320;SDS011;15376;48.540;9.268;2023-01-10T02:42:22;2.20;;;2.00;;
2320;SDS011;15376;48.540;9.268;2023-01-10T02:44:59;2.17;;;2.00;;
2320;SDS011;15376;48.540;9.268;2023-01-10T02:47:34;2.23;;;2.03;;
2320;SDS011;15376;48.540;9.268;2023-01-10T02:50:15;1.83;;;1.73;;
2320;SDS011;15376;48.540;9.268;2023-01-10T02:52:48;2.13;;;1.93;;
2320;SDS011;15376;48.540;9.268;2023-01-10T02:55:14;2.03;;;1.83;;
2320;SDS011;15376;48.540;9.268;2023-01-10T03:00:41;1.93;;;1.83;;
2320;SDS011;15376;48.540;9.268;2023-01-10T03:03:35;1.70;;;1.60;;
2320;SDS011;15376;48.540;9.268;2023-01-10T03:06:17;3.40;;;1.80;;
2320;SDS011;15376;48.540;9.268;2023-01-10T03:08:58;1.40;;;1.30;;
2320;SDS011;15376;48.540;9.268;2023-01-10T03:11:31;1.77;;;1.67;;
2320;SDS011;15376;48.540;9.268;2023-01-10T03:14:09;1.30;;;1.20;;
2320;SDS011;15376;48.540;9.268;2023-01-10T03:16:39;2.67;;;1.80;;
2320;SDS011;15376;48.540;9.268;2023-01-10T03:19:10;1.47;;;1.37;;
2320;SDS011;15376;48.540;9.268;2023-01-10T03:21:40;3.37;;;1.30;;
2320;SDS011;15376;48.540;9.268;2023-01-10T03:24:10;2.40;;;1.77;;
2320;SDS011;15376;48.540;9.268;2023-01-10T03:32:27;1.73;;;1.20;;
2320;SDS011;15376;48.540;9.268;2023-01-10T03:34:55;1.70;;;1.60;;
2320;SDS011;15376;48.540;9.268;2023-01-10T03:40:04;1.50;;;1.40;;
2320;SDS011;15376;48.540;9.268;2023-01-10T03:43:35;2.60;;;1.10;;
2320;SDS011;15376;48.540;9.268;2023-01-10T03:45:59;1.40;;;1.30;;
2320;SDS011;15376;48.540;9.268;2023-01-10T03:48:30;1.37;;;1.27;;
2320;SDS011;15376;48.540;9.268;2023-01-10T03:51:00;1.27;;;1.17;;
2320;SDS011;15376;48.540;9.268;2023-01-10T03:53:29;1.13;;;1.00;;
2320;SDS011;15376;48.540;9.268;2023-01-10T03:55:56;1.27;;;1.00;;
2320;SDS011;15376;48.540;9.268;2023-01-10T03:58:22;1.20;;;1.00;;
2320;SDS011;15376;48.540;9.268;2023-01-10T04:00:47;0.80;;;0.80;;
2320;SDS011;15376;48.540;9.268;2023-01-10T04:03:13;0.87;;;0.87;;
2320;SDS011;15376;48.540;9.268;2023-01-10T04:05:40;0.90;;;0.80;;
2320;SDS011;15376;48.540;9.268;2023-01-10T04:08:05;1.03;;;0.93;;
2320;SDS011;15376;48.540;9.268;2023-01-10T04:10:30;0.80;;;0.80;;
2320;SDS011;15376;48.540;9.268;2023-01-10T04:12:59;1.00;;;0.90;;
2320;SDS011;15376;48.540;9.268;2023-01-10T04:15:25;1.33;;;1.23;;
2320;SDS011;15376;48.540;9.268;2023-01-10T04:17:51;1.13;;;0.87;;
2320;SDS011;15376;48.540;9.268;2023-01-10T04:20:16;1.10;;;1.00;;
2320;SDS011;15376;48.540;9.268;2023-01-10T04:22:43;0.80;;;0.80;;
2320;SDS011;15376;48.540;9.268;2023-01-10T04:25:09;1.20;;;1.10;;
2320;SDS011;15376;48.540;9.268;2023-01-10T04:27:34;0.90;;;0.90;;
2320;SDS011;15376;48.540;9.268;2023-01-10T04:30:00;1.00;;;0.90;;
2320;SDS011;15376;48.540;9.268;2023-01-10T04:32:25;1.10;;;1.00;;
2320;SDS011;15376;48.540;9.268;2023-01-10T04:34:50;0.90;;;0.80;;
2320;SDS011;15376;48.540;9.268;2023-01-10T04:37:17;1.93;;;0.80;;
2320;SDS011;15376;48.540;9.268;2023-01-10T04:39:43;1.73;;;0.90;;
2320;SDS011;15376;48.540;9.268;2023-01-10T04:42:09;1.63;;;0.90;;
2320;SDS011;15376;48.540;9.268;2023-01-10T04:44:34;0.83;;;0.83;;
2320;SDS011;15376;48.540;9.268;2023-01-10T04:46:59;0.80;;;0.80;;
2320;SDS011;15376;48.540;9.268;2023-01-10T04:49:25;1.83;;;1.10;;
2320;SDS011;15376;48.540;9.268;2023-01-10T04:51:50;1.20;;;1.10;;
2320;SDS011;15376;48.540;9.268;2023-01-10T04:54:18;1.20;;;1.10;;
2320;SDS011;15376;48.540;9.268;2023-01-10T04:56:45;1.63;;;1.20;;
2320;SDS011;15376;48.540;9.268;2023-01-10T04:59:10;3.90;;;1.17;;
2320;SDS011;15376;48.540;9.268;2023-01-10T05:01:36;2.00;;;1.10;;
2320;SDS011;15376;48.540;9.268;2023-01-10T05:04:03;1.60;;;1.50;;
2320;SDS011;15376;48.540;9.268;2023-01-10T05:06:29;2.30;;;1.00;;
2320;SDS011;15376;48.540;9.268;2023-01-10T05:08:55;1.53;;;1.27;;
2320;SDS011;15376;48.540;9.268;2023-01-10T05:11:21;1.37;;;1.27;;
2320;SDS011;15376;48.540;9.268;2023-01-10T05:13:46;3.00;;;1.40;;
2320;SDS011;15376;48.540;9.268;2023-01-10T05:16:11;1.47;;;1.30;;
2320;SDS011;15376;48.540;9.268;2023-01-10T05:18:37;1.80;;;1.10;;
2320;SDS011;15376;48.540;9.268;2023-01-10T05:21:03;2.23;;;1.30;;
2320;SDS011;15376;48.540;9.268;2023-01-10T05:23:31;1.97;;;1.70;;
2320;SDS011;15376;48.540;9.268;2023-01-10T05:25:57;4.53;;;1.60;;
2320;SDS011;15376;48.540;9.268;2023-01-10T05:28:29;2.40;;;2.20;;
2320;SDS011;15376;48.540;9.268;2023-01-10T05:30:54;3.03;;;1.77;;
2320;SDS011;15376;48.540;9.268;2023-01-10T05:33:19;2.70;;;1.70;;
2320;SDS011;15376;48.540;9.268;2023-01-10T05:35:45;4.40;;;2.20;;
2320;SDS011;15376;48.540;9.268;2023-01-10T05:38:10;7.57;;;2.33;;
2320;SDS011;15376;48.540;9.268;2023-01-10T05:40:35;13.87;;;2.90;;
2320;SDS011;15376;48.540;9.268;2023-01-10T05:43:00;1.90;;;1.70;;
2320;SDS011;15376;48.540;9.268;2023-01-10T05:45:26;3.57;;;1.90;;
2320;SDS011;15376;48.540;9.268;2023-01-10T05:47:51;3.63;;;1.90;;
2320;SDS011;15376;48.540;9.268;2023-01-10T05:50:16;2.30;;;2.00;;
2320;SDS011;15376;48.540;9.268;2023-01-10T05:52:42;11.87;;;2.97;;
2320;SDS011;15376;48.540;9.268;2023-01-10T05:55:07;3.73;;;2.10;;
2320;SDS011;15376;48.540;9.268;2023-01-10T05:57:33;2.40;;;1.60;;
2320;SDS011;15376;48.540;9.268;2023-01-10T05:59:58;2.90;;;1.60;;
2320;SDS011;15376;48.540;9.268;2023-01-10T06:02:23;6.20;;;2.03;;
2320;SDS011;15376;48.540;9.268;2023-01-10T06:04:50;5.57;;;2.40;;
2320;SDS011;15376;48.540;9.268;2023-01-10T06:07:16;4.63;;;2.23;;
2320;SDS011;15376;48.540;9.268;2023-01-10T06:09:41;6.20;;;2.83;;
2320;SDS011;15376;48.540;9.268;2023-01-10T06:12:06;6.30;;;2.67;;
2320;SDS011;15376;48.540;9.268;2023-01-10T06:14:32;5.00;;;2.20;;
2320;SDS011;15376;48.540;9.268;2023-01-10T06:16:57;4.73;;;2.57;;
2320;SDS011;15376;48.540;9.268;2023-01-10T06:19:22;6.33;;;2.50;;
2320;SDS011;15376;48.540;9.268;2023-01-10T06:21:48;6.80;;;2.90;;
2320;SDS011;15376;48.540;9.268;2023-01-10T06:24:13;7.23;;;2.83;;
2320;SDS011;15376;48.540;9.268;2023-01-10T06:26:38;3.33;;;2.20;;
2320;SDS011;15376;48.540;9.268;2023-01-10T06:29:04;4.80;;;2.53;;
2320;SDS011;15376;48.540;9.268;2023-01-10T06:31:30;5.10;;;2.90;;
2320;SDS011;15376;48.540;9.268;2023-01-10T06:33:55;3.93;;;2.63;;
2320;SDS011;15376;48.540;9.268;2023-01-10T06:36:20;2.97;;;2.40;;
2320;SDS011;15376;48.540;9.268;2023-01-10T06:38:46;4.60;;;3.80;;
2320;SDS011;15376;48.540;9.268;2023-01-10T06:41:11;3.97;;;3.10;;
2320;SDS011;15376;48.540;9.268;2023-01-10T06:43:40;6.73;;;2.90;;
2320;SDS011;15376;48.540;9.268;2023-01-10T06:46:13;4.70;;;2.60;;
2320;SDS011;15376;48.540;9.268;2023-01-10T06:48:40;5.77;;;3.00;;
2320;SDS011;15376;48.540;9.268;2023-01-10T06:51:08;6.53;;;2.70;;
2320;SDS011;15376;48.540;9.268;2023-01-10T06:53:34;5.27;;;3.00;;
2320;SDS011;15376;48.540;9.268;2023-01-10T06:55:59;7.50;;;4.13;;
2320;SDS011;15376;48.540;9.268;2023-01-10T06:58:25;7.23;;;3.30;;
2320;SDS011;15376;48.540;9.268;2023-01-10T07:00:50;5.20;;;3.80;;
2320;SDS011;15376;48.540;9.268;2023-01-10T07:03:16;6.27;;;3.70;;
2320;SDS011;15376;48.540;9.268;2023-01-10T07:05:41;5.50;;;3.30;;
2320;SDS011;15376;48.540;9.268;2023-01-10T07:08:07;5.47;;;3.00;;
2320;SDS011;15376;48.540;9.268;2023-01-10T07:10:32;8.50;;;3.93;;
2320;SDS011;15376;48.540;9.268;2023-01-10T07:12:58;6.60;;;3.47;;
2320;SDS011;15376;48.540;9.268;2023-01-10T07:15:24;8.10;;;3.80;;
2320;SDS011;15376;48.540;9.268;2023-01-10T07:17:52;5.70;;;4.23;;
2320;SDS011;15376;48.540;9.268;2023-01-10T07:20:17;9.23;;;3.37;;
2320;SDS011;15376;48.540;9.268;2023-01-10T07:22:43;7.73;;;3.40;;
2320;SDS011;15376;48.540;9.268;2023-01-10T07:25:16;9.60;;;3.37;;
2320;SDS011;15376;48.540;9.268;2023-01-10T07:27:41;5.17;;;3.17;;
2320;SDS011;15376;48.540;9.268;2023-01-10T07:30:07;6.67;;;3.57;;
2320;SDS011;15376;48.540;9.268;2023-01-10T07:32:33;9.40;;;3.20;;
2320;SDS011;15376;48.540;9.268;2023-01-10T07:34:58;7.17;;;3.37;;
2320;SDS011;15376;48.540;9.268;2023-01-10T07:37:24;9.63;;;2.90;;
2320;SDS011;15376;48.540;9.268;2023-01-10T07:39:49;5.57;;;2.80;;
2320;SDS011;15376;48.540;9.268;2023-01-10T07:42:14;6.40;;;3.00;;
2320;SDS011;15376;48.540;9.268;2023-01-10T07:44:39;9.80;;;5.53;;
2320;SDS011;15376;48.540;9.268;2023-01-10T07:47:05;10.33;;;4.23;;
2320;SDS011;15376;48.540;9.268;2023-01-10T07:49:30;6.20;;;4.17;;
2320;SDS011;15376;48.540;9.268;2023-01-10T07:51:55;9.10;;;5.10;;
2320;SDS011;15376;48.540;9.268;2023-01-10T07:54:21;6.87;;;4.13;;
2320;SDS011;15376;48.540;9.268;2023-01-10T07:56:46;8.10;;;3.83;;
2320;SDS011;15376;48.540;9.268;2023-01-10T07:59:12;6.77;;;3.30;;
2320;SDS011;15376;48.540;9.268;2023-01-10T08:01:38;4.53;;;2.80;;
2320;SDS011;15376;48.540;9.268;2023-01-10T08:04:03;4.37;;;2.93;;
2320;SDS011;15376;48.540;9.268;2023-01-10T08:06:29;7.40;;;3.50;;
2320;SDS011;15376;48.540;9.268;2023-01-10T08:08:54;6.60;;;3.40;;
2320;SDS011;15376;48.540;9.268;2023-01-10T08:11:20;10.73;;;3.53;;
2320;SDS011;15376;48.540;9.268;2023-01-10T08:13:45;5.10;;;2.93;;
2320;SDS011;15376;48.540;9.268;2023-01-10T08:16:10;5.80;;;3.47;;
2320;SDS011;15376;48.540;9.268;2023-01-10T08:18:36;6.10;;;3.03;;
2320;SDS011;15376;48.540;9.268;2023-01-10T08:21:03;3.97;;;2.80;;
2320;SDS011;15376;48.540;9.268;2023-01-10T08:23:28;4.37;;;2.97;;
2320;SDS011;15376;48.540;9.268;2023-01-10T08:25:56;10.53;;;3.60;;
2320;SDS011;15376;48.540;9.268;2023-01-10T08:28:23;8.93;;;3.37;;
2320;SDS011;15376;48.540;9.268;2023-01-10T08:30:48;3.27;;;2.97;;
2320;SDS011;15376;48.540;9.268;2023-01-10T08:33:13;5.60;;;3.43;;
2320;SDS011;15376;48.540;9.268;2023-01-10T08:35:39;5.73;;;3.37;;
2320;SDS011;15376;48.540;9.268;2023-01-10T08:38:07;3.87;;;2.90;;
2320;SDS011;15376;48.540;9.268;2023-01-10T08:40:33;7.23;;;3.13;;
2320;SDS011;15376;48.540;9.268;2023-01-10T08:42:59;9.00;;;3.87;;
2320;SDS011;15376;48.540;9.268;2023-01-10T08:45:26;5.77;;;3.43;;
2320;SDS011;15376;48.540;9.268;2023-01-10T08:47:52;5.97;;;2.93;;
2320;SDS011;15376;48.540;9.268;2023-01-10T08:50:17;12.40;;;5.70;;
2320;SDS011;15376;48.540;9.268;2023-01-10T08:52:43;5.63;;;2.40;;
2320;SDS011;15376;48.540;9.268;2023-01-10T08:55:08;3.00;;;2.43;;
2320;SDS011;15376;48.540;9.268;2023-01-10T08:57:34;5.40;;;4.00;;
2320;SDS011;15376;48.540;9.268;2023-01-10T08:59:59;5.70;;;2.70;;
2320;SDS011;15376;48.540;9.268;2023-01-10T09:02:24;5.30;;;2.90;;
2320;SDS011;15376;48.540;9.268;2023-01-10T09:04:50;5.90;;;2.80;;
2320;SDS011;15376;48.540;9.268;2023-01-10T09:07:15;4.53;;;3.20;;
2320;SDS011;15376;48.540;9.268;2023-01-10T09:09:40;7.03;;;2.83;;
2320;SDS011;15376;48.540;9.268;2023-01-10T09:12:06;4.87;;;2.60;;
2320;SDS011;15376;48.540;9.268;2023-01-10T09:14:52;10.13;;;2.90;;
2320;SDS011;15376;48.540;9.268;2023-01-10T09:17:17;15.90;;;3.20;;
2320;SDS011;15376;48.540;9.268;2023-01-10T09:19:42;4.73;;;2.27;;
2320;SDS011;15376;48.540;9.268;2023-01-10T09:22:08;6.77;;;2.80;;
2320;SDS011;15376;48.540;9.268;2023-01-10T09:24:33;5.53;;;3.40;;
2320;SDS011;15376;48.540;9.268;2023-01-10T09:27:01;6.13;;;4.13;;
2320;SDS011;15376;48.540;9.268;2023-01-10T09:29:26;8.83;;;3.13;;
2320;SDS011;15376;48.540;9.268;2023-01-10T09:31:52;7.73;;;3.10;;
2320;SDS011;15376;48.540;9.268;2023-01-10T09:34:17;8.80;;;4.37;;
2320;SDS011;15376;48.540;9.268;2023-01-10T09:36:42;4.70;;;2.47;;
2320;SDS011;15376;48.540;9.268;2023-01-10T09:39:08;6.03;;;3.20;;
2320;SDS011;15376;48.540;9.268;2023-01-10T09:41:50;4.87;;;2.30;;
2320;SDS011;15376;48.540;9.268;2023-01-10T09:47:39;4.30;;;3.17;;
2320;SDS011;15376;48.540;9.268;2023-01-10T09:50:13;3.90;;;2.27;;
2320;SDS011;15376;48.540;9.268;2023-01-10T09:55:37;6.60;;;2.27;;
2320;SDS011;15376;48.540;9.268;2023-01-10T09:58:05;5.37;;;3.07;;
2320;SDS011;15376;48.540;9.268;2023-01-10T10:00:37;3.20;;;2.00;;
2320;SDS011;15376;48.540;9.268;2023-01-10T10:03:15;12.47;;;5.27;;
2320;SDS011;15376;48.540;9.268;2023-01-10T10:05:47;9.80;;;3.90;;
2320;SDS011;15376;48.540;9.268;2023-01-10T10:08:14;3.17;;;1.87;;
2320;SDS011;15376;48.540;9.268;2023-01-10T10:10:46;6.30;;;2.17;;
2320;SDS011;15376;48.540;9.268;2023-01-10T10:16:23;4.83;;;2.30;;
2320;SDS011;15376;48.540;9.268;2023-01-10T10:22:09;4.07;;;2.77;;
2320;SDS011;15376;48.540;9.268;2023-01-10T10:27:15;6.20;;;3.00;;
2320;SDS011;15376;48.540;9.268;2023-01-10T10:32:34;4.43;;;2.97;;
2320;SDS011;15376;48.540;9.268;2023-01-10T10:35:28;4.90;;;2.50;;
2320;SDS011;15376;48.540;9.268;2023-01-10T10:37:57;8.10;;;3.27;;
2320;SDS011;15376;48.540;9.268;2023-01-10T10:40:36;5.30;;;2.30;;
2320;SDS011;15376;48.540;9.268;2023-01-10T10:43:15;5.73;;;2.40;;
2320;SDS011;15376;48.540;9.268;2023-01-10T10:45:56;4.40;;;2.80;;
2320;SDS011;15376;48.540;9.268;2023-01-10T10:48:30;8.50;;;2.40;;
2320;SDS011;15376;48.540;9.268;2023-01-10T10:53:32;5.87;;;3.00;;
2320;SDS011;15376;48.540;9.268;2023-01-10T10:55:59;5.87;;;2.10;;
2320;SDS011;15376;48.540;9.268;2023-01-10T10:58:27;6.10;;;2.70;;
2320;SDS011;15376;48.540;9.268;2023-01-10T11:00:55;5.27;;;2.40;;
2320;SDS011;15376;48.540;9.268;2023-01-10T11:05:49;5.77;;;2.10;;
2320;SDS011;15376;48.540;9.268;2023-01-10T11:08:16;3.60;;;1.80;;
2320;SDS011;15376;48.540;9.268;2023-01-10T11:10:49;7.17;;;2.30;;
2320;SDS011;15376;48.540;9.268;2023-01-10T11:15:59;6.43;;;2.23;;
2320;SDS011;15376;48.540;9.268;2023-01-10T11:18:28;4.83;;;2.37;;
2320;SDS011;15376;48.540;9.268;2023-01-10T11:28:47;5.80;;;2.20;;
2320;SDS011;15376;48.540;9.268;2023-01-10T11:31:15;7.23;;;1.87;;
2320;SDS011;15376;48.540;9.268;2023-01-10T11:33:51;3.00;;;2.47;;
2320;SDS011;15376;48.540;9.268;2023-01-10T11:36:17;3.60;;;1.90;;
2320;SDS011;15376;48.540;9.268;2023-01-10T11:38:57;4.43;;;2.60;;
2320;SDS011;15376;48.540;9.268;2023-01-10T11:41:25;2.50;;;2.07;;
2320;SDS011;15376;48.540;9.268;2023-01-10T11:44:02;1.90;;;1.40;;
2320;SDS011;15376;48.540;9.268;2023-01-10T11:46:41;4.70;;;1.93;;
2320;SDS011;15376;48.540;9.268;2023-01-10T11:49:10;2.47;;;1.60;;
2320;SDS011;15376;48.540;9.268;2023-01-10T11:51:44;3.00;;;2.37;;
2320;SDS011;15376;48.540;9.268;2023-01-10T11:54:22;5.50;;;2.03;;
2320;SDS011;15376;48.540;9.268;2023-01-10T11:56:56;4.30;;;2.23;;
2320;SDS011;15376;48.540;9.268;2023-01-10T11:59:27;2.43;;;1.57;;
2320;SDS011;15376;48.540;9.268;2023-01-10T12:01:55;3.40;;;2.47;;
2320;SDS011;15376;48.540;9.268;2023-01-10T12:04:24;4.43;;;2.10;;
2320;SDS011;15376;48.540;9.268;2023-01-10T12:06:54;4.40;;;2.10;;
2320;SDS011;15376;48.540;9.268;2023-01-10T12:09:42;3.20;;;1.97;;
2320;SDS011;15376;48.540;9.268;2023-01-10T12:12:24;2.40;;;2.20;;
2320;SDS011;15376;48.540;9.268;2023-01-10T12:14:55;3.63;;;2.70;;
2320;SDS011;15376;48.540;9.268;2023-01-10T12:17:26;5.50;;;2.10;;
2320;SDS011;15376;48.540;9.268;2023-01-10T12:19:54;3.90;;;2.00;;
2320;SDS011;15376;48.540;9.268;2023-01-10T12:22:29;4.33;;;1.90;;
2320;SDS011;15376;48.540;9.268;2023-01-10T12:24:59;4.77;;;1.93;;
2320;SDS011;15376;48.540;9.268;2023-01-10T12:27:27;2.30;;;1.80;;
2320;SDS011;15376;48.540;9.268;2023-01-10T12:30:02;5.00;;;1.80;;
2320;SDS011;15376;48.540;9.268;2023-01-10T12:32:33;6.03;;;2.50;;
2320;SDS011;15376;48.540;9.268;2023-01-10T12:35:08;2.73;;;2.20;;
2320;SDS011;15376;48.540;9.268;2023-01-10T12:37:47;3.97;;;1.60;;
2320;SDS011;15376;48.540;9.268;2023-01-10T12:40:29;2.90;;;1.27;;
2320;SDS011;15376;48.540;9.268;2023-01-10T12:43:06;6.50;;;1.73;;
2320;SDS011;15376;48.540;9.268;2023-01-10T12:45:59;5.37;;;2.37;;
2320;SDS011;15376;48.540;9.268;2023-01-10T12:48:47;2.97;;;2.07;;
2320;SDS011;15376;48.540;9.268;2023-01-10T12:51:21;5.87;;;1.87;;
2320;SDS011;15376;48.540;9.268;2023-01-10T12:53:53;5.57;;;2.03;;
2320;SDS011;15376;48.540;9.268;2023-01-10T12:56:22;3.40;;;1.73;;
2320;SDS011;15376;48.540;9.268;2023-01-10T12:58:53;4.03;;;1.93;;
2320;SDS011;15376;48.540;9.268;2023-01-10T13:01:23;5.30;;;2.17;;
2320;SDS011;15376;48.540;9.268;2023-01-10T13:04:08;2.70;;;1.90;;
2320;SDS011;15376;48.540;9.268;2023-01-10T13:06:37;4.60;;;1.73;;
2320;SDS011;15376;48.540;9.268;2023-01-10T13:09:07;11.27;;;2.27;;
2320;SDS011;15376;48.540;9.268;2023-01-10T13:14:17;2.20;;;1.90;;
2320;SDS011;15376;48.540;9.268;2023-01-10T13:16:49;3.97;;;1.93;;
2320;SDS011;15376;48.540;9.268;2023-01-10T13:21:48;6.93;;;2.27;;
2320;SDS011;15376;48.540;9.268;2023-01-10T13:24:23;2.57;;;1.70;;
2320;SDS011;15376;48.540;9.268;2023-01-10T13:26:53;3.13;;;2.37;;
2320;SDS011;15376;48.540;9.268;2023-01-10T13:29:36;2.80;;;1.90;;
2320;SDS011;15376;48.540;9.268;2023-01-10T13:32:14;1.90;;;1.73;;
2320;SDS011;15376;48.540;9.268;2023-01-10T13:34:45;3.10;;;2.37;;
2320;SDS011;15376;48.540;9.268;2023-01-10T13:37:12;4.23;;;2.20;;
2320;SDS011;15376;48.540;9.268;2023-01-10T13:39:43;3.67;;;1.90;;
2320;SDS011;15376;48.540;9.268;2023-01-10T13:42:35;3.20;;;1.83;;
2320;SDS011;15376;48.540;9.268;2023-01-10T13:45:24;7.17;;;2.50;;
2320;SDS011;15376;48.540;9.268;2023-01-10T13:52:56;4.47;;;1.87;;
2320;SDS011;15376;48.540;9.268;2023-01-10T14:06:16;3.87;;;1.97;;
2320;SDS011;15376;48.540;9.268;2023-01-10T14:14:41;2.60;;;1.30;;
2320;SDS011;15376;48.540;9.268;2023-01-10T14:19:40;1.90;;;1.70;;
2320;SDS011;15376;48.540;9.268;2023-01-10T14:22:20;5.50;;;2.37;;
2320;SDS011;15376;48.540;9.268;2023-01-10T14:24:50;3.67;;;2.30;;
2320;SDS011;15376;48.540;9.268;2023-01-10T14:27:17;3.47;;;1.83;;
2320;SDS011;15376;48.540;9.268;2023-01-10T14:29:53;2.27;;;1.40;;
2320;SDS011;15376;48.540;9.268;2023-01-10T14:32:37;3.30;;;2.93;;
2320;SDS011;15376;48.540;9.268;2023-01-10T14:35:08;6.07;;;2.07;;
2320;SDS011;15376;48.540;9.268;2023-01-10T14:37:59;4.43;;;1.90;;
2320;SDS011;15376;48.540;9.268;2023-01-10T14:43:05;5.33;;;1.83;;
2320;SDS011;15376;48.540;9.268;2023-01-10T14:48:22;4.37;;;2.00;;
2320;SDS011;15376;48.540;9.268;2023-01-10T14:51:15;1.60;;;1.50;;
2320;SDS011;15376;48.540;9.268;2023-01-10T14:53:42;2.90;;;1.63;;
2320;SDS011;15376;48.540;9.268;2023-01-10T14:56:18;2.87;;;2.03;;
2320;SDS011;15376;48.540;9.268;2023-01-10T14:58:51;4.03;;;1.87;;
2320;SDS011;15376;48.540;9.268;2023-01-10T15:01:19;4.33;;;2.37;;
2320;SDS011;15376;48.540;9.268;2023-01-10T15:03:48;6.33;;;1.90;;
2320;SDS011;15376;48.540;9.268;2023-01-10T15:06:13;2.60;;;1.40;;
2320;SDS011;15376;48.540;9.268;2023-01-10T15:08:39;6.40;;;2.67;;
2320;SDS011;15376;48.540;9.268;2023-01-10T15:11:05;2.33;;;1.60;;
2320;SDS011;15376;48.540;9.268;2023-01-10T15:13:47;5.90;;;1.90;;
2320;SDS011;15376;48.540;9.268;2023-01-10T15:16:17;3.67;;;1.87;;
2320;SDS011;15376;48.540;9.268;2023-01-10T15:18:45;9.50;;;2.13;;
2320;SDS011;15376;48.540;9.268;2023-01-10T15:21:13;4.10;;;1.90;;
2320;SDS011;15376;48.540;9.268;2023-01-10T15:23:40;8.43;;;4.00;;
2320;SDS011;15376;48.540;9.268;2023-01-10T15:26:11;4.17;;;2.40;;
2320;SDS011;15376;48.540;9.268;2023-01-10T15:28:41;8.00;;;3.60;;
2320;SDS011;15376;48.540;9.268;2023-01-10T15:31:12;22.30;;;7.90;;
2320;SDS011;15376;48.540;9.268;2023-01-10T15:33:40;10.93;;;5.23;;
2320;SDS011;15376;48.540;9.268;2023-01-10T15:36:13;16.50;;;7.67;;
2320;SDS011;15376;48.540;9.268;2023-01-10T15:38:42;20.63;;;11.63;;
2320;SDS011;15376;48.540;9.268;2023-01-10T15:41:14;43.13;;;18.60;;
2320;SDS011;15376;48.540;9.268;2023-01-10T15:43:42;18.20;;;8.80;;
2320;SDS011;15376;48.540;9.268;2023-01-10T15:46:15;30.40;;;14.80;;
2320;SDS011;15376;48.540;9.268;2023-01-10T15:48:55;50.63;;;24.80;;
2320;SDS011;15376;48.540;9.268;2023-01-10T15:51:33;23.87;;;13.97;;
2320;SDS011;15376;48.540;9.268;2023-01-10T15:54:02;13.00;;;7.77;;
2320;SDS011;15376;48.540;9.268;2023-01-10T15:56:30;16.83;;;7.67;;
2320;SDS011;15376;48.540;9.268;2023-01-10T15:58:56;6.00;;;4.13;;
2320;SDS011;15376;48.540;9.268;2023-01-10T16:01:23;6.40;;;4.50;;
2320;SDS011;15376;48.540;9.268;2023-01-10T16:03:50;5.77;;;4.47;;
2320;SDS011;15376;48.540;9.268;2023-01-10T16:06:28;4.40;;;2.83;;
2320;SDS011;15376;48.540;9.268;2023-01-10T16:08:55;2.50;;;1.93;;
2320;SDS011;15376;48.540;9.268;2023-01-10T16:11:27;2.40;;;2.20;;
2320;SDS011;15376;48.540;9.268;2023-01-10T16:14:22;4.17;;;3.20;;
2320;SDS011;15376;48.540;9.268;2023-01-10T16:16:47;7.80;;;4.00;;
2320;SDS011;15376;48.540;9.268;2023-01-10T16:19:13;6.40;;;4.37;;
2320;SDS011;15376;48.540;9.268;2023-01-10T16:21:40;5.50;;;2.47;;
2320;SDS011;15376;48.540;9.268;2023-01-10T16:24:13;3.67;;;3.30;;
2320;SDS011;15376;48.540;9.268;2023-01-10T16:26:47;4.10;;;3.00;;
2320;SDS011;15376;48.540;9.268;2023-01-10T16:29:13;6.33;;;3.60;;
2320;SDS011;15376;48.540;9.268;2023-01-10T16:31:39;3.33;;;2.60;;
2320;SDS011;15376;48.540;9.268;2023-01-10T16:34:05;5.87;;;4.37;;
2320;SDS011;15376;48.540;9.268;2023-01-10T16:36:31;5.27;;;3.70;;
2320;SDS011;15376;48.540;9.268;2023-01-10T16:38:56;7.10;;;3.30;;
2320;SDS011;15376;48.540;9.268;2023-01-10T16:41:22;8.20;;;3.57;;
2320;SDS011;15376;48.540;9.268;2023-01-10T16:44:06;6.00;;;3.70;;
2320;SDS011;15376;48.540;9.268;2023-01-10T16:46:31;27.60;;;12.53;;
2320;SDS011;15376;48.540;9.268;2023-01-10T16:48:57;52.20;;;20.20;;